Eaton, New York
Current Conditions -  °F | °C
As of 11:53 PM on Wednesday 17 Dec 2014 (Local Time) from KRME Reporting Station
Light Snow Light Snow  
Wind Chill: 23°   Ceiling: 1100
Heat Index: 33°   Visibility: 9mi
Dew Point: 30°   Wind: 14mph
Humidity: 89%   Direction: 270°W
Pressure: 29.89"   Gusts: 20mph
Location:  42.85°N, 75.61°W
Report Text: KRME 180453Z AUTO 27012G17KT 9SM -SN OVC011 01/M01 A2989 RMK AO2 SNB10E15B51 SLP122 P0000 T00061011 400500006
Loading
Personal Weather Stations






























Interactive Weather Map New forecast layout! Learn more

10-Day Weather Forecast

Advertisements
Track Severe Weather on mobile